PAWO2: Black Bear Creek, Pawnee, OK

                                SHEF ID:       PAWO2     Black Bear Creek at Pawnee, OK
STATION TYPE:
Regulating: Stage = 17.00, Flow = 9631

PRECIP STAGE RIV-FLOW BAT-LOAD
in ft cfs volt
Ccp-Rev Ccp-Rev Ccp-Rev Ccp-Rev
(America/Chicago)
04/30 00:00 ---- 3.73 383 12.37
04/30 01:00 ---- 3.70 374 12.34
04/30 02:00 ---- 3.68 368 12.32
04/30 03:00 ---- 3.65 359 12.30
04/30 04:00 ---- 3.63 353 12.27
04/30 05:00 ---- 3.61 347 12.24
04/30 06:00 ---- 3.59 341 12.21
04/30 07:00 ---- 3.57 336 12.17
04/30 08:00 ---- 3.55 330 12.24
04/30 09:00 ---- 3.52 321 12.96
04/30 10:00 ---- 3.50 316 13.11
04/30 11:00 ---- 3.48 310 13.75
04/30 12:00 ---- 3.45 302 14.00
04/30 13:00 ---- 3.43 297 14.05
04/30 14:00 ---- 3.41 292 13.42
04/30 15:00 ---- 3.38 284 13.28
04/30 16:00 ---- 3.36 279 13.22
04/30 17:00 ---- 3.35 276 13.19
04/30 18:00 ---- 3.34 273 13.24
04/30 19:00 ---- 3.32 268 13.29
04/30 20:00 ---- 3.31 266 13.28
04/30 21:00 ---- 3.29 261 12.75
04/30 22:00 ---- 3.27 256 12.36
04/30 23:00 ---- 3.25 251 12.40
Data processed at Fri 01May2026 04:36 GMT

NOTICE: If you are parsing this page

Please convert to using our Data API. Starting early 2026 we will be migrating to: https://water.usace.army.mil with modern pages rendered in JavaScript. When this migration completes you will no longer be able to scrape this page! CWMSDataAPI (CDA)

Timeseries IDs (TSIDs)

TSIDs used from left to right in the data table
PAWN.Precip-Inc.Total.1Hour.1Hour.Ccp-Rev
PAWN.Stage.Inst.1Hour.0.Ccp-Rev
PAWN.Flow.Inst.1Hour.0.Ccp-Rev
PAWN.Volt-Battery Load.Inst.1Hour.0.Ccp-Rev

                            

All information presented herein is the property of the government of the United States of America and may be revised or deleted at any time without prior notice. Dissemination of this information without the expressed written consent of the Public Affairs Office, Tulsa District U.S. Army Corps of Engineers is strictly prohibited. These data are gathered electronically and, as presented, have NOT undergone any form of quality control. These data are NOT guaranteed to be valid or correct.